Atwater, Illinois
Current Conditions -  °F | °C
As of 5:15 AM on Thursday 23 Oct 2014 (Local Time) from K3LF Reporting Station
Clear Clear  
Wind Chill: 38°   Ceiling: Unl
Heat Index: 38°   Visibility: 7mi
Dew Point: 36°   Wind: 3mph
Humidity: 91%   Direction: 150°SSE
Pressure: 30.21"   Gusts: NA
Location:  39.33°N, 89.72°W
Report Text: K3LF 231015Z AUTO 15003KT 7SM CLR 04/02 A3021 RMK AO2 T00360022
Loading
Personal Weather Stations






























Interactive Weather Map New forecast layout! Learn more

10-Day Weather Forecast

Advertisements
Track Severe Weather on mobile